Aviation Digital Data Service (ADDS)

Output produced by METARs form (1304 UTC 21 February 2018)
found at http://www.aviationweather.gov/adds/metars/
 
TAF AMD KIAB 211233Z 2112/2216 02012KT 9999 BKN070 OVC250 620703 QNH3038INS 
     BECMG 2117/2118 03012G20KT 9999 BKN070 OVC100 620703 QNH3040INS 
     BECMG 2121/2122 05010G15KT 6000 -SN FZDZ BKN020 OVC050 660002 660353 620655 QNH3040INS 
     BECMG 2123/2124 06012KT 4800 -FZRA OVC008 690001 660253 620556 QNH3032INS 
     BECMG 2202/2203 06012KT 4800 -FZRA OVC005 690001 660253 620556 QNH3032INS 
     TEMPO 2203/2208 05010G15KT 4800 TS -FZRA OVC005CB 
     BECMG 2213/2214 08009KT 9999 NSW OVC005 620056 QNH3035INS TXM03/2121Z TNM11/2112Z
       
KIAD 201457Z 2015/2118 21011KT P6SM SCT015 SCT250 
     FM201700 20011G18KT P6SM SCT250 
     FM210600 20008KT P6SM BKN010 
     FM211400 21009KT P6SM SCT025
       
KIAH 211257Z 2113/2218 14009KT P6SM VCSH FEW020 BKN110 BKN200 
     TEMPO 2113/2115 SHRA BKN013 
     FM211500 11007KT 4SM -RA VCTS SCT009CB OVC015 
     FM211900 36009KT 3SM TSRA BR OVC009CB 
     FM212200 35009KT 5SM -RA BR VCTS OVC009CB 
     FM220600 35006KT 3SM BR VCSH OVC006 
     FM221600 03007KT P6SM VCSH BKN015
       
KIND 201359Z 2014/2118 20018G30KT P6SM VCSH SCT025 BKN060 
     TEMPO 2015/2018 4SM SHRA OVC025 
     FM210000 19012G18KT P6SM VCSH BKN050 WS020/21045KT 
     FM210600 21011KT 5SM +SHRA OVC015 
     FM211000 30011KT 4SM +SHRA OVC008 
     FM211200 34010KT 5SM -SHRA OVC010
       
TAF KINS 2015/2121 VRB06KT 9999 SKC QNH2995INS 
     BECMG 2105/2106 02006KT 9999 BKN100 QNH3007INS 
     BECMG 2115/2116 08009KT 9999 BKN120 QNH3010INS TX04/2023Z TNM08/2015Z